Time,TemperatureF,DewpointF,PressureIn,WindDirection,WindDirectionDegrees,WindSpeedMPH,WindSpeedGustMPH,Humidity,HourlyPrecipIn,Conditions,Clouds,dailyrainin,SoftwareType,DateUTC
2013-03-29 00:02:00,50.4,48.8,0.00,SW,233,1.9,3.5,94,0.00,,,0.00,WUHU216CR1000,2013-03-29 07:02:00,
2013-03-29 00:07:00,50.4,48.8,0.00,SW,233,1.9,3.5,94,0.00,,,0.00,WUHU216CR1000,2013-03-29 07:07:00,
2013-03-29 00:17:00,50.4,48.9,0.00,SW,232,2.0,5.0,94,0.00,,,0.00,WUHU216CR1000,2013-03-29 07:17:00,
2013-03-29 00:22:00,50.4,48.9,0.00,SW,232,2.0,5.0,94,0.00,,,0.00,WUHU216CR1000,2013-03-29 07:22:00,
2013-03-29 00:32:00,50.4,48.9,0.00,SW,235,1.4,3.9,95,0.04,,,0.04,WUHU216CR1000,2013-03-29 07:32:00,
2013-03-29 00:37:00,50.4,48.9,0.00,SW,235,1.4,3.9,95,0.04,,,0.04,WUHU216CR1000,2013-03-29 07:37:00,
2013-03-29 00:47:00,50.3,48.8,0.00,SW,230,1.7,3.5,95,0.04,,,0.04,WUHU216CR1000,2013-03-29 07:47:00,
2013-03-29 00:52:00,50.3,48.8,0.00,SW,230,1.7,3.5,95,0.04,,,0.04,WUHU216CR1000,2013-03-29 07:52:00,
2013-03-29 01:02:00,50.1,48.6,0.00,WSW,246,0.8,2.6,95,0.04,,,0.04,WUHU216CR1000,2013-03-29 08:02:00,
2013-03-29 01:07:00,50.1,48.6,0.00,WSW,246,0.8,2.6,95,0.04,,,0.04,WUHU216CR1000,2013-03-29 08:07:00,
2013-03-29 01:17:00,49.9,48.5,0.00,SSE,147,0.4,1.3,95,0.00,,,0.04,WUHU216CR1000,2013-03-29 08:17:00,
2013-03-29 01:22:00,49.9,48.5,0.00,SSE,147,0.4,1.3,95,0.00,,,0.04,WUHU216CR1000,2013-03-29 08:22:00,
2013-03-29 01:32:00,49.8,48.4,0.00,SSE,168,0.3,1.5,95,0.00,,,0.04,WUHU216CR1000,2013-03-29 08:32:00,
2013-03-29 01:37:00,49.8,48.4,0.00,SSE,168,0.3,1.5,95,0.00,,,0.04,WUHU216CR1000,2013-03-29 08:37:00,
2013-03-29 01:47:00,49.7,48.3,0.00,SSE,148,1.4,2.4,95,0.00,,,0.04,WUHU216CR1000,2013-03-29 08:47:00,
2013-03-29 01:52:00,49.7,48.3,0.00,SSE,148,1.4,2.4,95,0.00,,,0.04,WUHU216CR1000,2013-03-29 08:52:00,
2013-03-29 02:02:00,49.5,48.1,0.00,SE,135,1.3,2.6,95,0.00,,,0.04,WUHU216CR1000,2013-03-29 09:02:00,
2013-03-29 02:07:00,49.5,48.1,0.00,SE,135,1.3,2.6,95,0.00,,,0.04,WUHU216CR1000,2013-03-29 09:07:00,
2013-03-29 02:17:00,49.4,48.2,0.00,SSE,160,0.5,1.5,95,0.00,,,0.04,WUHU216CR1000,2013-03-29 09:17:00,
2013-03-29 02:22:00,49.4,48.2,0.00,SSE,160,0.5,1.5,95,0.00,,,0.04,WUHU216CR1000,2013-03-29 09:22:00,
2013-03-29 02:32:00,49.5,48.3,0.00,SE,146,0.4,1.8,95,0.00,,,0.04,WUHU216CR1000,2013-03-29 09:32:00,
2013-03-29 02:37:00,49.5,48.3,0.00,SE,146,0.4,1.8,95,0.00,,,0.04,WUHU216CR1000,2013-03-29 09:37:00,
2013-03-29 02:47:00,49.6,48.4,0.00,WNW,298,0.2,2.4,95,0.00,,,0.04,WUHU216CR1000,2013-03-29 09:47:00,
2013-03-29 02:52:00,49.6,48.4,0.00,WNW,298,0.2,2.4,95,0.00,,,0.04,WUHU216CR1000,2013-03-29 09:52:00,
2013-03-29 03:02:00,49.7,48.4,0.00,NE,52,0.2,1.3,95,0.00,,,0.04,WUHU216CR1000,2013-03-29 10:02:00,
2013-03-29 03:07:00,49.7,48.4,0.00,NE,52,0.2,1.3,95,0.00,,,0.04,WUHU216CR1000,2013-03-29 10:07:00,
2013-03-29 03:17:00,49.8,48.6,0.00,NNW,334,0.9,2.2,96,0.00,,,0.04,WUHU216CR1000,2013-03-29 10:17:00,
2013-03-29 03:22:00,49.8,48.6,0.00,NNW,334,0.9,2.2,96,0.00,,,0.04,WUHU216CR1000,2013-03-29 10:22:00,
2013-03-29 03:32:00,49.8,48.6,0.00,NW,325,1.7,4.2,96,0.00,,,0.04,WUHU216CR1000,2013-03-29 10:32:00,
2013-03-29 03:37:00,49.8,48.6,0.00,NW,325,1.7,4.2,96,0.00,,,0.04,WUHU216CR1000,2013-03-29 10:37:00,
2013-03-29 03:47:00,49.8,48.6,0.00,NW,320,2.9,5.3,96,0.00,,,0.04,WUHU216CR1000,2013-03-29 10:47:00,
2013-03-29 03:52:00,49.8,48.6,0.00,NW,320,2.9,5.3,96,0.00,,,0.04,WUHU216CR1000,2013-03-29 10:52:00,
2013-03-29 04:02:00,49.8,48.6,0.00,North,353,3.2,5.9,96,0.00,,,0.04,WUHU216CR1000,2013-03-29 11:02:00,
2013-03-29 04:07:00,49.8,48.6,0.00,North,353,3.2,5.9,96,0.00,,,0.04,WUHU216CR1000,2013-03-29 11:07:00,
2013-03-29 04:17:00,49.8,48.6,0.00,North,1,2.7,5.3,96,0.00,,,0.04,WUHU216CR1000,2013-03-29 11:17:00,
2013-03-29 04:22:00,49.8,48.6,0.00,North,1,2.7,5.3,96,0.00,,,0.04,WUHU216CR1000,2013-03-29 11:22:00,
2013-03-29 04:32:00,49.8,48.7,0.00,NNW,344,3.4,6.8,96,0.00,,,0.04,WUHU216CR1000,2013-03-29 11:32:00,
2013-03-29 04:37:00,49.8,48.7,0.00,NNW,344,3.4,6.8,96,0.00,,,0.04,WUHU216CR1000,2013-03-29 11:37:00,
2013-03-29 04:47:00,49.7,48.6,0.00,North,6,2.9,4.8,96,0.00,,,0.04,WUHU216CR1000,2013-03-29 11:47:00,
2013-03-29 04:52:00,49.7,48.6,0.00,North,6,2.9,4.8,96,0.00,,,0.04,WUHU216CR1000,2013-03-29 11:52:00,
2013-03-29 04:57:00,49.7,48.6,0.00,North,6,2.9,4.8,96,0.00,,,0.04,WUHU216CR1000,2013-03-29 11:57:00,
2013-03-29 05:02:00,49.5,48.4,0.00,NNW,341,3.0,5.5,96,0.00,,,0.04,WUHU216CR1000,2013-03-29 12:02:00,
2013-03-29 05:07:00,49.5,48.4,0.00,NNW,341,3.0,5.5,96,0.00,,,0.04,WUHU216CR1000,2013-03-29 12:07:00,
2013-03-29 05:17:00,49.7,48.6,0.00,NNE,14,2.1,4.4,96,0.00,,,0.04,WUHU216CR1000,2013-03-29 12:17:00,
2013-03-29 05:22:00,49.7,48.6,0.00,NNE,14,2.1,4.4,96,0.00,,,0.04,WUHU216CR1000,2013-03-29 12:22:00,
2013-03-29 05:32:00,49.8,48.7,0.00,North,5,2.7,5.3,96,0.00,,,0.04,WUHU216CR1000,2013-03-29 12:32:00,
2013-03-29 05:37:00,49.8,48.7,0.00,North,5,2.7,5.3,96,0.00,,,0.04,WUHU216CR1000,2013-03-29 12:37:00,
2013-03-29 05:47:00,49.7,48.6,0.00,North,352,3.1,5.9,96,0.00,,,0.04,WUHU216CR1000,2013-03-29 12:47:00,
2013-03-29 05:52:00,49.7,48.6,0.00,North,352,3.1,5.9,96,0.00,,,0.04,WUHU216CR1000,2013-03-29 12:52:00,
2013-03-29 06:02:00,49.5,48.5,0.00,NNW,336,3.6,5.9,96,0.00,,,0.04,WUHU216CR1000,2013-03-29 13:02:00,
2013-03-29 06:07:00,49.5,48.5,0.00,NNW,336,3.6,5.9,96,0.00,,,0.04,WUHU216CR1000,2013-03-29 13:07:00,
2013-03-29 06:12:00,49.5,48.5,0.00,NNW,336,3.6,5.9,96,0.00,,,0.04,WUHU216CR1000,2013-03-29 13:12:00,
2013-03-29 06:17:00,49.5,48.4,0.00,NNW,335,3.3,5.7,96,0.00,,,0.04,WUHU216CR1000,2013-03-29 13:17:00,
2013-03-29 06:22:00,49.5,48.4,0.00,NNW,335,3.3,5.7,96,0.00,,,0.04,WUHU216CR1000,2013-03-29 13:22:00,
2013-03-29 06:32:00,49.5,48.4,0.00,NNW,333,2.0,3.5,96,0.00,,,0.04,WUHU216CR1000,2013-03-29 13:32:00,
2013-03-29 06:37:00,49.5,48.4,0.00,NNW,333,2.0,3.5,96,0.00,,,0.04,WUHU216CR1000,2013-03-29 13:37:00,
2013-03-29 06:47:00,49.3,48.2,0.00,NW,311,2.4,3.7,96,0.00,,,0.04,WUHU216CR1000,2013-03-29 13:47:00,
2013-03-29 06:52:00,49.3,48.2,0.00,NW,311,2.4,3.7,96,0.00,,,0.04,WUHU216CR1000,2013-03-29 13:52:00,
2013-03-29 07:02:00,49.2,48.2,0.00,WNW,299,2.6,4.2,96,0.00,,,0.04,WUHU216CR1000,2013-03-29 14:02:00,
2013-03-29 07:07:00,49.2,48.2,0.00,WNW,299,2.6,4.2,96,0.00,,,0.04,WUHU216CR1000,2013-03-29 14:07:00,
2013-03-29 07:12:00,49.2,48.2,0.00,WNW,299,2.6,4.2,96,0.00,,,0.04,WUHU216CR1000,2013-03-29 14:12:00,
2013-03-29 07:17:00,49.1,48.0,0.00,NW,312,2.4,3.9,96,0.00,,,0.04,WUHU216CR1000,2013-03-29 14:17:00,
2013-03-29 07:22:00,49.1,48.0,0.00,NW,312,2.4,3.9,96,0.00,,,0.04,WUHU216CR1000,2013-03-29 14:22:00,
2013-03-29 07:32:00,49.0,48.0,0.00,NW,323,2.5,3.9,96,0.00,,,0.04,WUHU216CR1000,2013-03-29 14:32:00,
2013-03-29 07:37:00,49.0,48.0,0.00,NW,323,2.5,3.9,96,0.00,,,0.04,WUHU216CR1000,2013-03-29 14:37:00,
2013-03-29 07:47:00,48.9,47.9,0.00,NW,322,2.3,4.6,96,0.00,,,0.04,WUHU216CR1000,2013-03-29 14:47:00,
2013-03-29 07:52:00,48.9,47.9,0.00,NW,322,2.3,4.6,96,0.00,,,0.04,WUHU216CR1000,2013-03-29 14:52:00,
2013-03-29 08:02:00,48.8,47.8,0.00,NW,320,2.5,4.6,96,0.00,,,0.04,WUHU216CR1000,2013-03-29 15:02:00,
2013-03-29 08:07:00,48.8,47.8,0.00,NW,320,2.5,4.6,96,0.00,,,0.04,WUHU216CR1000,2013-03-29 15:07:00,
2013-03-29 08:17:00,48.7,47.7,0.00,NNW,328,2.8,4.6,96,0.00,,,0.04,WUHU216CR1000,2013-03-29 15:17:00,
2013-03-29 08:22:00,48.7,47.7,0.00,NNW,328,2.8,4.6,96,0.00,,,0.04,WUHU216CR1000,2013-03-29 15:22:00,
2013-03-29 08:47:00,48.3,47.3,0.00,NNW,333,2.8,5.5,96,0.00,,,0.04,WUHU216CR1000,2013-03-29 15:47:00,
2013-03-29 08:52:00,48.3,47.3,0.00,NNW,333,2.8,5.5,96,0.00,,,0.04,WUHU216CR1000,2013-03-29 15:52:00,
2013-03-29 09:02:00,48.6,47.6,0.00,North,356,2.8,4.8,96,0.00,,,0.04,WUHU216CR1000,2013-03-29 16:02:00,
2013-03-29 09:07:00,48.6,47.6,0.00,North,356,2.8,4.8,96,0.00,,,0.04,WUHU216CR1000,2013-03-29 16:07:00,
2013-03-29 09:17:00,48.5,47.5,0.00,NNW,344,2.5,4.2,96,0.00,,,0.04,WUHU216CR1000,2013-03-29 16:17:00,
2013-03-29 09:22:00,48.5,47.5,0.00,NNW,344,2.5,4.2,96,0.00,,,0.04,WUHU216CR1000,2013-03-29 16:22:00,
2013-03-29 09:32:00,49.2,48.2,0.00,North,1,2.4,5.0,96,0.00,,,0.04,WUHU216CR1000,2013-03-29 16:32:00,
2013-03-29 09:37:00,49.2,48.2,0.00,North,1,2.4,5.0,96,0.00,,,0.04,WUHU216CR1000,2013-03-29 16:37:00,
2013-03-29 09:47:00,49.4,48.4,0.00,NNW,345,2.1,5.0,96,0.00,,,0.04,WUHU216CR1000,2013-03-29 16:47:00,
2013-03-29 09:52:00,49.4,48.4,0.00,NNW,345,2.1,5.0,96,0.00,,,0.04,WUHU216CR1000,2013-03-29 16:52:00,
2013-03-29 10:02:00,49.8,48.8,0.00,NE,42,1.7,3.5,96,0.00,,,0.04,WUHU216CR1000,2013-03-29 17:02:00,
2013-03-29 10:07:00,49.8,48.8,0.00,NE,42,1.7,3.5,96,0.00,,,0.04,WUHU216CR1000,2013-03-29 17:07:00,
2013-03-29 10:17:00,51.8,50.8,0.00,NNE,27,1.2,3.7,96,0.00,,,0.04,WUHU216CR1000,2013-03-29 17:17:00,
2013-03-29 10:22:00,51.8,50.8,0.00,NNE,27,1.2,3.7,96,0.00,,,0.04,WUHU216CR1000,2013-03-29 17:22:00,
2013-03-29 10:32:00,52.4,51.3,0.00,West,281,0.9,3.3,96,0.00,,,0.04,WUHU216CR1000,2013-03-29 17:32:00,
2013-03-29 10:37:00,52.4,51.3,0.00,West,281,0.9,3.3,96,0.00,,,0.04,WUHU216CR1000,2013-03-29 17:37:00,
2013-03-29 10:47:00,54.2,53.1,0.00,SW,217,0.6,2.4,96,0.00,,,0.04,WUHU216CR1000,2013-03-29 17:47:00,
2013-03-29 10:52:00,54.2,53.1,0.00,SW,217,0.6,2.4,96,0.00,,,0.04,WUHU216CR1000,2013-03-29 17:52:00,
2013-03-29 11:02:00,55.5,53.9,0.00,West,259,1.2,2.4,95,0.00,,,0.04,WUHU216CR1000,2013-03-29 18:02:00,
2013-03-29 11:07:00,55.5,53.9,0.00,West,259,1.2,2.4,95,0.00,,,0.04,WUHU216CR1000,2013-03-29 18:07:00,
2013-03-29 11:17:00,57.5,55.0,0.00,SSE,152,2.2,5.3,92,0.00,,,0.04,WUHU216CR1000,2013-03-29 18:17:00,
2013-03-29 11:22:00,57.5,55.0,0.00,SSE,152,2.2,5.3,92,0.00,,,0.04,WUHU216CR1000,2013-03-29 18:22:00,
2013-03-29 11:32:00,59.1,55.3,0.00,South,191,2.3,5.3,87,0.00,,,0.04,WUHU216CR1000,2013-03-29 18:32:00,
2013-03-29 11:37:00,59.1,55.3,0.00,South,191,2.3,5.3,87,0.00,,,0.04,WUHU216CR1000,2013-03-29 18:37:00,
2013-03-29 11:47:00,60.3,55.6,0.00,ESE,111,2.3,5.5,85,0.00,,,0.04,WUHU216CR1000,2013-03-29 18:47:00,
2013-03-29 11:52:00,60.3,55.6,0.00,ESE,111,2.3,5.5,85,0.00,,,0.04,WUHU216CR1000,2013-03-29 18:52:00,
2013-03-29 12:02:00,62.4,55.1,0.00,ENE,68,2.0,4.6,77,0.00,,,0.04,WUHU216CR1000,2013-03-29 19:02:00,
2013-03-29 12:07:00,62.4,55.1,0.00,ENE,68,2.0,4.6,77,0.00,,,0.04,WUHU216CR1000,2013-03-29 19:07:00,
2013-03-29 12:17:00,63.6,54.5,0.00,East,82,2.0,5.5,72,0.00,,,0.04,WUHU216CR1000,2013-03-29 19:17:00,
2013-03-29 12:22:00,63.6,54.5,0.00,East,82,2.0,5.5,72,0.00,,,0.04,WUHU216CR1000,2013-03-29 19:22:00,
2013-03-29 12:32:00,65.1,55.7,0.00,SE,140,2.8,6.6,72,0.00,,,0.04,WUHU216CR1000,2013-03-29 19:32:00,
2013-03-29 12:37:00,65.1,55.7,0.00,SE,140,2.8,6.6,72,0.00,,,0.04,WUHU216CR1000,2013-03-29 19:37:00,
2013-03-29 12:47:00,67.0,56.8,0.00,SSE,157,3.9,8.8,70,0.00,,,0.04,WUHU216CR1000,2013-03-29 19:47:00,
2013-03-29 12:52:00,67.0,56.8,0.00,SSE,157,3.9,8.8,70,0.00,,,0.04,WUHU216CR1000,2013-03-29 19:52:00,
2013-03-29 13:02:00,66.5,56.0,0.00,SSE,149,4.3,8.6,69,0.00,,,0.04,WUHU216CR1000,2013-03-29 20:02:00,
2013-03-29 13:07:00,66.5,56.0,0.00,SSE,149,4.3,8.6,69,0.00,,,0.04,WUHU216CR1000,2013-03-29 20:07:00,
2013-03-29 13:17:00,67.5,56.5,0.00,SSE,151,3.0,6.4,68,0.00,,,0.04,WUHU216CR1000,2013-03-29 20:17:00,
2013-03-29 13:22:00,67.5,56.5,0.00,SSE,151,3.0,6.4,68,0.00,,,0.04,WUHU216CR1000,2013-03-29 20:22:00,
2013-03-29 13:32:00,70.9,57.0,0.00,South,171,2.7,7.5,62,0.00,,,0.04,WUHU216CR1000,2013-03-29 20:32:00,
2013-03-29 13:37:00,70.9,57.0,0.00,South,171,2.7,7.5,62,0.00,,,0.04,WUHU216CR1000,2013-03-29 20:37:00,
2013-03-29 13:47:00,72.3,57.2,0.00,SSE,152,4.4,9.6,59,0.00,,,0.04,WUHU216CR1000,2013-03-29 20:47:00,
2013-03-29 13:52:00,72.3,57.2,0.00,SSE,152,4.4,9.6,59,0.00,,,0.04,WUHU216CR1000,2013-03-29 20:52:00,
2013-03-29 14:02:00,73.5,57.1,0.00,SSE,149,4.7,10.1,57,0.00,,,0.04,WUHU216CR1000,2013-03-29 21:02:00,
2013-03-29 14:07:00,73.5,57.1,0.00,SSE,149,4.7,10.1,57,0.00,,,0.04,WUHU216CR1000,2013-03-29 21:07:00,
2013-03-29 14:17:00,72.5,55.9,0.00,SSE,157,5.8,9.6,56,0.00,,,0.04,WUHU216CR1000,2013-03-29 21:17:00,
2013-03-29 14:22:00,72.5,55.9,0.00,SSE,157,5.8,9.6,56,0.00,,,0.04,WUHU216CR1000,2013-03-29 21:22:00,
2013-03-29 14:32:00,72.7,55.0,0.00,SE,146,6.2,10.5,54,0.00,,,0.04,WUHU216CR1000,2013-03-29 21:32:00,
2013-03-29 14:37:00,72.7,55.0,0.00,SE,146,6.2,10.5,54,0.00,,,0.04,WUHU216CR1000,2013-03-29 21:37:00,
2013-03-29 14:47:00,72.7,54.3,0.00,SSE,166,5.2,9.9,53,0.00,,,0.04,WUHU216CR1000,2013-03-29 21:47:00,
2013-03-29 14:52:00,72.7,54.3,0.00,SSE,166,5.2,9.9,53,0.00,,,0.04,WUHU216CR1000,2013-03-29 21:52:00,
2013-03-29 15:02:00,74.2,53.5,0.00,South,169,6.0,10.5,48,0.00,,,0.04,WUHU216CR1000,2013-03-29 22:02:00,
2013-03-29 15:07:00,74.2,53.5,0.00,South,169,6.0,10.5,48,0.00,,,0.04,WUHU216CR1000,2013-03-29 22:07:00,
2013-03-29 15:17:00,75.3,52.8,0.00,South,182,8.1,14.9,45,0.00,,,0.04,WUHU216CR1000,2013-03-29 22:17:00,
2013-03-29 15:22:00,75.3,52.8,0.00,South,182,8.1,14.9,45,0.00,,,0.04,WUHU216CR1000,2013-03-29 22:22:00,
2013-03-29 15:32:00,75.3,52.9,0.00,South,179,5.8,11.8,46,0.00,,,0.04,WUHU216CR1000,2013-03-29 22:32:00,
2013-03-29 15:37:00,75.3,52.9,0.00,South,179,5.8,11.8,46,0.00,,,0.04,WUHU216CR1000,2013-03-29 22:37:00,
2013-03-29 15:47:00,75.1,52.2,0.00,South,170,8.5,14.7,45,0.00,,,0.04,WUHU216CR1000,2013-03-29 22:47:00,
2013-03-29 15:52:00,75.1,52.2,0.00,South,170,8.5,14.7,45,0.00,,,0.04,WUHU216CR1000,2013-03-29 22:52:00,
2013-03-29 16:02:00,75.1,52.2,0.00,South,170,8.5,14.7,45,0.00,,,0.04,WUHU216CR1000,2013-03-29 23:02:00,
2013-03-29 16:07:00,75.1,52.2,0.00,South,170,8.5,14.7,45,0.00,,,0.04,WUHU216CR1000,2013-03-29 23:07:00,
2013-03-29 16:17:00,70.7,53.9,0.00,SW,223,8.3,14.7,56,0.00,,,0.04,WUHU216CR1000,2013-03-29 23:17:00,
2013-03-29 16:22:00,70.7,53.9,0.00,SW,223,8.3,14.7,56,0.00,,,0.04,WUHU216CR1000,2013-03-29 23:22:00,
2013-03-29 16:32:00,66.7,53.3,0.00,WSW,238,8.6,15.8,62,0.00,,,0.04,WUHU216CR1000,2013-03-29 23:32:00,
2013-03-29 16:37:00,66.7,53.3,0.00,WSW,238,8.6,15.8,62,0.00,,,0.04,WUHU216CR1000,2013-03-29 23:37:00,
2013-03-29 16:47:00,65.3,52.7,0.00,WSW,237,8.4,16.9,64,0.00,,,0.04,WUHU216CR1000,2013-03-29 23:47:00,
2013-03-29 16:52:00,65.3,52.7,0.00,WSW,237,8.4,16.9,64,0.00,,,0.04,WUHU216CR1000,2013-03-29 23:52:00,
2013-03-29 17:02:00,65.6,52.6,0.00,SW,233,7.6,16.7,63,0.00,,,0.04,WUHU216CR1000,2013-03-30 00:02:00,
2013-03-29 17:07:00,65.6,52.6,0.00,SW,233,7.6,16.7,63,0.00,,,0.04,WUHU216CR1000,2013-03-30 00:07:00,
2013-03-29 17:12:00,65.6,52.6,0.00,SW,233,7.6,16.7,63,0.00,,,0.04,WUHU216CR1000,2013-03-30 00:12:00,
2013-03-29 17:17:00,66.7,52.8,0.00,SW,236,6.6,13.4,61,0.00,,,0.04,WUHU216CR1000,2013-03-30 00:17:00,
2013-03-29 17:22:00,66.7,52.8,0.00,SW,236,6.6,13.4,61,0.00,,,0.04,WUHU216CR1000,2013-03-30 00:22:00,
2013-03-29 17:32:00,67.5,52.6,0.00,WSW,243,5.5,12.3,59,0.00,,,0.04,WUHU216CR1000,2013-03-30 00:32:00,
2013-03-29 17:37:00,67.5,52.6,0.00,WSW,243,5.5,12.3,59,0.00,,,0.04,WUHU216CR1000,2013-03-30 00:37:00,
2013-03-29 17:47:00,67.1,53.0,0.00,SSW,212,5.1,9.2,61,0.00,,,0.04,WUHU216CR1000,2013-03-30 00:47:00,
2013-03-29 17:52:00,67.1,53.0,0.00,SSW,212,5.1,9.2,61,0.00,,,0.04,WUHU216CR1000,2013-03-30 00:52:00,
2013-03-29 18:02:00,65.6,53.1,0.00,SW,225,5.7,10.7,64,0.00,,,0.04,WUHU216CR1000,2013-03-30 01:02:00,
2013-03-29 18:07:00,65.6,53.1,0.00,SW,225,5.7,10.7,64,0.00,,,0.04,WUHU216CR1000,2013-03-30 01:07:00,
2013-03-29 18:17:00,64.7,53.5,0.00,SSW,207,4.5,8.8,67,0.00,,,0.04,WUHU216CR1000,2013-03-30 01:17:00,
2013-03-29 18:22:00,64.7,53.5,0.00,SSW,207,4.5,8.8,67,0.00,,,0.04,WUHU216CR1000,2013-03-30 01:22:00,
2013-03-29 18:32:00,63.0,52.7,0.00,SW,216,4.1,9.2,69,0.00,,,0.04,WUHU216CR1000,2013-03-30 01:32:00,
2013-03-29 18:37:00,63.0,52.7,0.00,SW,216,4.1,9.2,69,0.00,,,0.04,WUHU216CR1000,2013-03-30 01:37:00,
2013-03-29 18:47:00,62.1,51.9,0.00,SSW,207,4.0,7.0,69,0.00,,,0.04,WUHU216CR1000,2013-03-30 01:47:00,
2013-03-29 18:52:00,62.1,51.9,0.00,SSW,207,4.0,7.0,69,0.00,,,0.04,WUHU216CR1000,2013-03-30 01:52:00,
2013-03-29 19:02:00,61.5,51.6,0.00,SSW,207,4.3,7.5,70,0.00,,,0.04,WUHU216CR1000,2013-03-30 02:02:00,
2013-03-29 19:07:00,61.5,51.6,0.00,SSW,207,4.3,7.5,70,0.00,,,0.04,WUHU216CR1000,2013-03-30 02:07:00,
2013-03-29 19:17:00,60.3,51.8,0.00,ESE,117,1.7,3.7,74,0.00,,,0.04,WUHU216CR1000,2013-03-30 02:17:00,
2013-03-29 19:22:00,60.3,51.8,0.00,ESE,117,1.7,3.7,74,0.00,,,0.04,WUHU216CR1000,2013-03-30 02:22:00,
2013-03-29 19:32:00,58.9,51.1,0.00,SE,139,2.7,4.2,75,0.00,,,0.04,WUHU216CR1000,2013-03-30 02:32:00,
2013-03-29 19:37:00,58.9,51.1,0.00,SE,139,2.7,4.2,75,0.00,,,0.04,WUHU216CR1000,2013-03-30 02:37:00,
2013-03-29 19:47:00,57.9,51.4,0.00,SE,134,2.4,4.2,79,0.00,,,0.04,WUHU216CR1000,2013-03-30 02:47:00,
2013-03-29 19:52:00,57.9,51.4,0.00,SE,134,2.4,4.2,79,0.00,,,0.04,WUHU216CR1000,2013-03-30 02:52:00,
2013-03-29 20:02:00,56.6,51.5,0.00,ESE,117,2.5,4.6,83,0.00,,,0.04,WUHU216CR1000,2013-03-30 03:02:00,
2013-03-29 20:07:00,56.6,51.5,0.00,ESE,117,2.5,4.6,83,0.00,,,0.04,WUHU216CR1000,2013-03-30 03:07:00,
2013-03-29 20:17:00,56.1,51.2,0.00,SSE,165,2.5,3.9,84,0.00,,,0.04,WUHU216CR1000,2013-03-30 03:17:00,
2013-03-29 20:22:00,56.1,51.2,0.00,SSE,165,2.5,3.9,84,0.00,,,0.04,WUHU216CR1000,2013-03-30 03:22:00,
2013-03-29 20:32:00,55.5,51.1,0.00,SSE,158,3.2,5.0,85,0.00,,,0.04,WUHU216CR1000,2013-03-30 03:32:00,
2013-03-29 20:37:00,55.5,51.1,0.00,SSE,158,3.2,5.0,85,0.00,,,0.04,WUHU216CR1000,2013-03-30 03:37:00,
2013-03-29 20:47:00,55.5,51.0,0.00,SE,133,2.1,3.9,85,0.00,,,0.04,WUHU216CR1000,2013-03-30 03:47:00,
2013-03-29 20:52:00,55.5,51.0,0.00,SE,133,2.1,3.9,85,0.00,,,0.04,WUHU216CR1000,2013-03-30 03:52:00,
2013-03-29 21:02:00,55.4,51.1,0.00,SSE,166,2.1,5.0,85,0.00,,,0.04,WUHU216CR1000,2013-03-30 04:02:00,
2013-03-29 21:07:00,55.4,51.1,0.00,SSE,166,2.1,5.0,85,0.00,,,0.04,WUHU216CR1000,2013-03-30 04:07:00,
2013-03-29 21:17:00,55.4,51.1,0.00,South,175,1.5,4.2,85,0.00,,,0.04,WUHU216CR1000,2013-03-30 04:17:00,
2013-03-29 21:22:00,55.4,51.1,0.00,South,175,1.5,4.2,85,0.00,,,0.04,WUHU216CR1000,2013-03-30 04:22:00,
2013-03-29 21:32:00,55.4,51.0,0.00,South,183,3.7,10.3,85,0.00,,,0.04,WUHU216CR1000,2013-03-30 04:32:00,
2013-03-29 21:37:00,55.4,51.0,0.00,South,183,3.7,10.3,85,0.00,,,0.04,WUHU216CR1000,2013-03-30 04:37:00,
2013-03-29 21:47:00,54.7,49.9,0.00,SW,234,5.4,13.2,84,0.00,,,0.04,WUHU216CR1000,2013-03-30 04:47:00,
2013-03-29 21:52:00,54.7,49.9,0.00,SW,234,5.4,13.2,84,0.00,,,0.04,WUHU216CR1000,2013-03-30 04:52:00,
2013-03-29 22:02:00,54.3,49.6,0.00,WSW,245,1.8,9.2,84,0.00,,,0.04,WUHU216CR1000,2013-03-30 05:02:00,
2013-03-29 22:07:00,54.3,49.6,0.00,WSW,245,1.8,9.2,84,0.00,,,0.04,WUHU216CR1000,2013-03-30 05:07:00,
2013-03-29 22:17:00,54.3,49.6,0.00,SSE,153,2.4,4.4,84,0.00,,,0.04,WUHU216CR1000,2013-03-30 05:17:00,
2013-03-29 22:22:00,54.3,49.6,0.00,SSE,153,2.4,4.4,84,0.00,,,0.04,WUHU216CR1000,2013-03-30 05:22:00,
2013-03-29 22:32:00,54.0,49.9,0.00,West,270,2.1,7.0,86,0.00,,,0.04,WUHU216CR1000,2013-03-30 05:32:00,
2013-03-29 22:37:00,54.0,49.9,0.00,West,270,2.1,7.0,86,0.00,,,0.04,WUHU216CR1000,2013-03-30 05:37:00,
2013-03-29 22:47:00,54.0,49.7,0.00,SSE,161,2.3,7.5,85,0.00,,,0.04,WUHU216CR1000,2013-03-30 05:47:00,
2013-03-29 22:52:00,54.0,49.7,0.00,SSE,161,2.3,7.5,85,0.00,,,0.04,WUHU216CR1000,2013-03-30 05:52:00,
2013-03-29 23:02:00,53.7,49.8,0.00,South,181,2.8,6.4,87,0.00,,,0.04,WUHU216CR1000,2013-03-30 06:02:00,
2013-03-29 23:07:00,53.7,49.8,0.00,South,181,2.8,6.4,87,0.00,,,0.04,WUHU216CR1000,2013-03-30 06:07:00,
2013-03-29 23:17:00,53.5,49.9,0.00,South,183,1.9,4.6,88,0.00,,,0.04,WUHU216CR1000,2013-03-30 06:17:00,
2013-03-29 23:22:00,53.5,49.9,0.00,South,183,1.9,4.6,88,0.00,,,0.04,WUHU216CR1000,2013-03-30 06:22:00,
2013-03-29 23:32:00,53.2,50.1,0.00,SE,139,4.8,9.6,89,0.00,,,0.04,WUHU216CR1000,2013-03-30 06:32:00,
2013-03-29 23:37:00,53.2,50.1,0.00,SE,139,4.8,9.6,89,0.00,,,0.04,WUHU216CR1000,2013-03-30 06:37:00,
2013-03-29 23:47:00,52.6,49.8,0.00,South,184,2.6,7.7,90,0.00,,,0.04,WUHU216CR1000,2013-03-30 06:47:00,
2013-03-29 23:52:00,52.6,49.8,0.00,South,184,2.6,7.7,90,0.00,,,0.04,WUHU216CR1000,2013-03-30 06:52:00,